Cincinnati, Ohio
Traffic Map
Current Weather Conditions
Cincinnati, Ohio
Broken Clouds
Broken Clouds
26°
Feels Like: 27°
Wind Chill: 26° Ceiling: 4700
Heat Index: 27° Visibility: 10mi
Dew Point: 19° Wind: 12mph
Humidity: 64% Direction: 220° (SW)
Pressure: 29.95in Gusts: 17mph
Raw Report DataKLUK 261653Z 22010G15KT 10SM BKN047 26/19 A2995 RMK AO2 SLP139 T02610189
Traffic Incident Summary
Active as of:
Severity:
Category:
InformationThere was an issue retrieving the traffic information for this location. Please try a different location or try again shortly.
Advertisements
Track Severe Weather on mobile